Miami, FL (33126)

4:44 PM EST on January 19, 2017 (GMT -0500)
Little Havana-West Flagler Street in Miami Florida | | Change Station

Elev 13 ft 25.77 °N, 80.25 °W | Updated 14 seconds ago

Partly Cloudy
Partly Cloudy
80.1 °F
Feels Like 81 °F
N
2.9
Wind Variable Wind from WSW
Gusts 6.0 mph

Today
High -- | Low -- °F
--% Chance of Precip.
Yesterday
High -- | Low -- °F
Precip. -- in
Pressure 29.99 in
Visibility 10.0 miles
Clouds Few 5000 ft
Heat Index 81 °F
Dew Point 61 °F
Humidity 53%
Rainfall 0.00 in
Snow Depth Not available.
7:08 AM 5:55 PM
Waning Gibbous, 50% visible
METAR KMIA 192053Z 13009KT 10SM FEW050 27/17 A2999 RMK AO2 SLP155 T02670167 56014
Pressure 29.99 in
Visibility 10.0 miles
Clouds Few 5000 ft
Heat Index 81 °F
Dew Point 61 °F
Humidity 53%
Rainfall 0.00 in
Snow Depth Not available.
7:08 AM 5:55 PM
Waning Gibbous, 50% visible
METAR KMIA 192053Z 13009KT 10SM FEW050 27/17 A2999 RMK AO2 SLP155 T02670167 56014

Get Your Daily Forecast Email!

Thanks for signing up!

Be on the lookout for a verification email in your inbox.

You'll start receiving the daily forecast at 8 AM.

×

10-Day Weather Forecast

Almanac

Astronomy

Jan. 19, 2017 Rise Set
Actual Time
Civil Twilight
Nautical Twilight
Astronomical Twilight
Moon
Length of Visible Light
Length of Day
Tomorrow will be .
, % of the Moon is Illuminated

Today's Extremes

State Highs State Lows

Community

WunderPhotos

Upload Photos

1,962,540 photos uploaded!

WunderBlog® & News

Nearby

Air Quality

  Air Quality AQ Index Pollutant
Not available.

Snow Depth

Station Depth Elevation

Earthquake Activity

City Distance Mag. Time & Date
Minimum magnitude displayed is 2.5.

Coastal Water Temperatures

Place Temperature

Stations

Nearby Weather Stations

Station Location Temp. Windchill Dew Point Humidity Wind Precip. Elev Updated Type
                   

Watches & Warnings

There are currently no watches in effect.